sensor_id;sensor_type;location;lat;lon;timestamp;temperature;humidity
32215;DHT22;18708;53.124;23.190;2022-09-03T00:07:25;6.40;99.90
32215;DHT22;18708;53.124;23.190;2022-09-03T00:09:56;6.30;99.90
32215;DHT22;18708;53.124;23.190;2022-09-03T00:12:31;6.30;99.90
32215;DHT22;18708;53.124;23.190;2022-09-03T00:15:08;6.30;99.90
32215;DHT22;18708;53.124;23.190;2022-09-03T00:20:25;6.20;99.90
32215;DHT22;18708;53.124;23.190;2022-09-03T00:22:58;6.20;99.90
32215;DHT22;18708;53.124;23.190;2022-09-03T00:25:37;6.20;99.90
32215;DHT22;18708;53.124;23.190;2022-09-03T00:28:10;6.20;99.90
32215;DHT22;18708;53.124;23.190;2022-09-03T00:30:37;6.20;99.90
32215;DHT22;18708;53.124;23.190;2022-09-03T00:33:15;6.20;99.90
32215;DHT22;18708;53.124;23.190;2022-09-03T00:35:50;6.20;99.90
32215;DHT22;18708;53.124;23.190;2022-09-03T00:38:18;6.20;99.90
32215;DHT22;18708;53.124;23.190;2022-09-03T00:41:09;6.20;99.90
32215;DHT22;18708;53.124;23.190;2022-09-03T01:00:03;6.10;99.90
32215;DHT22;18708;53.124;23.190;2022-09-03T01:16:31;6.00;99.90
32215;DHT22;18708;53.124;23.190;2022-09-03T01:27:46;6.00;99.90
32215;DHT22;18708;53.124;23.190;2022-09-03T01:30:18;6.00;99.90
32215;DHT22;18708;53.124;23.190;2022-09-03T01:56:32;6.30;99.90
32215;DHT22;18708;53.124;23.190;2022-09-03T01:59:10;6.30;99.90
32215;DHT22;18708;53.124;23.190;2022-09-03T02:01:42;6.40;99.90
32215;DHT22;18708;53.124;23.190;2022-09-03T02:04:17;6.40;99.90
32215;DHT22;18708;53.124;23.190;2022-09-03T02:06:45;6.40;99.90
32215;DHT22;18708;53.124;23.190;2022-09-03T02:09:14;6.50;99.90
32215;DHT22;18708;53.124;23.190;2022-09-03T02:11:40;6.50;99.90
32215;DHT22;18708;53.124;23.190;2022-09-03T02:14:07;6.60;99.90
32215;DHT22;18708;53.124;23.190;2022-09-03T02:16:33;6.70;99.90
32215;DHT22;18708;53.124;23.190;2022-09-03T02:19:06;6.70;99.90
32215;DHT22;18708;53.124;23.190;2022-09-03T02:21:34;6.80;99.90
32215;DHT22;18708;53.124;23.190;2022-09-03T02:24:02;6.90;99.90
32215;DHT22;18708;53.124;23.190;2022-09-03T02:26:29;6.90;99.90
32215;DHT22;18708;53.124;23.190;2022-09-03T02:28:55;6.90;99.90
32215;DHT22;18708;53.124;23.190;2022-09-03T02:31:22;7.00;99.90
32215;DHT22;18708;53.124;23.190;2022-09-03T02:33:49;7.00;99.90
32215;DHT22;18708;53.124;23.190;2022-09-03T02:36:18;7.00;99.90
32215;DHT22;18708;53.124;23.190;2022-09-03T02:38:46;7.10;99.90
32215;DHT22;18708;53.124;23.190;2022-09-03T02:41:12;7.10;99.90
32215;DHT22;18708;53.124;23.190;2022-09-03T02:44:01;7.10;99.90
32215;DHT22;18708;53.124;23.190;2022-09-03T02:46:43;7.20;99.90
32215;DHT22;18708;53.124;23.190;2022-09-03T02:49:10;7.20;99.90
32215;DHT22;18708;53.124;23.190;2022-09-03T02:51:38;7.20;99.90
32215;DHT22;18708;53.124;23.190;2022-09-03T02:54:05;7.30;99.90
32215;DHT22;18708;53.124;23.190;2022-09-03T02:56:31;7.30;99.90
32215;DHT22;18708;53.124;23.190;2022-09-03T02:58:57;7.30;99.90
32215;DHT22;18708;53.124;23.190;2022-09-03T03:01:22;7.40;99.90
32215;DHT22;18708;53.124;23.190;2022-09-03T03:03:48;7.40;99.90
32215;DHT22;18708;53.124;23.190;2022-09-03T03:06:14;7.40;99.90
32215;DHT22;18708;53.124;23.190;2022-09-03T03:08:40;7.50;99.90
32215;DHT22;18708;53.124;23.190;2022-09-03T03:11:06;7.50;99.90
32215;DHT22;18708;53.124;23.190;2022-09-03T03:13:32;7.50;99.90
32215;DHT22;18708;53.124;23.190;2022-09-03T03:16:03;7.60;99.90
32215;DHT22;18708;53.124;23.190;2022-09-03T03:18:31;7.60;99.90
32215;DHT22;18708;53.124;23.190;2022-09-03T03:21:06;7.70;99.90
32215;DHT22;18708;53.124;23.190;2022-09-03T03:23:34;7.70;99.90
32215;DHT22;18708;53.124;23.190;2022-09-03T03:26:04;7.70;99.90
32215;DHT22;18708;53.124;23.190;2022-09-03T03:28:30;7.70;99.90
32215;DHT22;18708;53.124;23.190;2022-09-03T03:31:10;7.70;99.90
32215;DHT22;18708;53.124;23.190;2022-09-03T03:33:36;7.80;99.90
32215;DHT22;18708;53.124;23.190;2022-09-03T03:36:07;7.80;99.90
32215;DHT22;18708;53.124;23.190;2022-09-03T03:38:33;7.80;99.90
32215;DHT22;18708;53.124;23.190;2022-09-03T03:41:24;7.90;99.90
32215;DHT22;18708;53.124;23.190;2022-09-03T03:43:58;7.90;99.90
32215;DHT22;18708;53.124;23.190;2022-09-03T03:46:27;8.00;99.90
32215;DHT22;18708;53.124;23.190;2022-09-03T03:48:53;8.00;99.90
32215;DHT22;18708;53.124;23.190;2022-09-03T03:51:19;8.00;99.90
32215;DHT22;18708;53.124;23.190;2022-09-03T03:53:45;8.10;99.90
32215;DHT22;18708;53.124;23.190;2022-09-03T03:56:14;8.00;99.90
32215;DHT22;18708;53.124;23.190;2022-09-03T03:58:41;8.10;99.90
32215;DHT22;18708;53.124;23.190;2022-09-03T04:01:13;8.10;99.90
32215;DHT22;18708;53.124;23.190;2022-09-03T04:03:39;8.10;99.90
32215;DHT22;18708;53.124;23.190;2022-09-03T04:06:06;8.20;99.90
32215;DHT22;18708;53.124;23.190;2022-09-03T04:08:38;8.20;99.90
32215;DHT22;18708;53.124;23.190;2022-09-03T04:11:06;8.20;99.90
32215;DHT22;18708;53.124;23.190;2022-09-03T04:13:34;8.20;99.90
32215;DHT22;18708;53.124;23.190;2022-09-03T04:16:09;8.30;99.90
32215;DHT22;18708;53.124;23.190;2022-09-03T04:18:36;8.40;99.90
32215;DHT22;18708;53.124;23.190;2022-09-03T04:21:05;8.40;99.90
32215;DHT22;18708;53.124;23.190;2022-09-03T04:23:32;8.50;99.90
32215;DHT22;18708;53.124;23.190;2022-09-03T04:25:58;8.50;99.90
32215;DHT22;18708;53.124;23.190;2022-09-03T04:28:24;8.60;99.90
32215;DHT22;18708;53.124;23.190;2022-09-03T04:30:50;8.60;99.90
32215;DHT22;18708;53.124;23.190;2022-09-03T04:33:15;8.70;99.90
32215;DHT22;18708;53.124;23.190;2022-09-03T04:35:41;8.80;99.90
32215;DHT22;18708;53.124;23.190;2022-09-03T04:38:08;8.80;99.90
32215;DHT22;18708;53.124;23.190;2022-09-03T04:40:33;8.90;99.90
32215;DHT22;18708;53.124;23.190;2022-09-03T04:42:59;8.90;99.90
32215;DHT22;18708;53.124;23.190;2022-09-03T04:45:25;9.00;99.90
32215;DHT22;18708;53.124;23.190;2022-09-03T04:47:59;9.00;99.90
32215;DHT22;18708;53.124;23.190;2022-09-03T04:50:25;9.00;99.90
32215;DHT22;18708;53.124;23.190;2022-09-03T04:52:53;9.10;99.90
32215;DHT22;18708;53.124;23.190;2022-09-03T04:55:22;9.10;99.90
32215;DHT22;18708;53.124;23.190;2022-09-03T04:57:48;9.20;99.90
32215;DHT22;18708;53.124;23.190;2022-09-03T05:00:14;9.20;99.90
32215;DHT22;18708;53.124;23.190;2022-09-03T05:02:43;9.30;99.90
32215;DHT22;18708;53.124;23.190;2022-09-03T05:05:11;9.30;99.90
32215;DHT22;18708;53.124;23.190;2022-09-03T05:07:37;9.30;99.90
32215;DHT22;18708;53.124;23.190;2022-09-03T05:10:13;9.40;99.90
32215;DHT22;18708;53.124;23.190;2022-09-03T05:12:56;9.40;99.90
32215;DHT22;18708;53.124;23.190;2022-09-03T05:15:21;9.50;99.90
32215;DHT22;18708;53.124;23.190;2022-09-03T05:17:47;9.60;99.90
32215;DHT22;18708;53.124;23.190;2022-09-03T05:20:13;9.60;99.90
32215;DHT22;18708;53.124;23.190;2022-09-03T05:22:39;9.70;99.90
32215;DHT22;18708;53.124;23.190;2022-09-03T05:25:05;9.70;99.90
32215;DHT22;18708;53.124;23.190;2022-09-03T05:27:31;9.80;99.90
32215;DHT22;18708;53.124;23.190;2022-09-03T05:29:57;9.90;99.90
32215;DHT22;18708;53.124;23.190;2022-09-03T05:32:22;10.00;99.90
32215;DHT22;18708;53.124;23.190;2022-09-03T05:34:49;10.00;99.90
32215;DHT22;18708;53.124;23.190;2022-09-03T05:37:15;10.00;99.90
32215;DHT22;18708;53.124;23.190;2022-09-03T05:39:40;10.10;99.90
32215;DHT22;18708;53.124;23.190;2022-09-03T05:42:06;10.20;99.90
32215;DHT22;18708;53.124;23.190;2022-09-03T05:44:32;10.20;99.90
32215;DHT22;18708;53.124;23.190;2022-09-03T05:46:57;10.40;99.90
32215;DHT22;18708;53.124;23.190;2022-09-03T05:49:24;10.80;99.90
32215;DHT22;18708;53.124;23.190;2022-09-03T05:51:49;11.50;99.90
32215;DHT22;18708;53.124;23.190;2022-09-03T05:54:15;11.90;99.90
32215;DHT22;18708;53.124;23.190;2022-09-03T05:56:41;12.10;99.90
32215;DHT22;18708;53.124;23.190;2022-09-03T05:59:08;12.50;99.90
32215;DHT22;18708;53.124;23.190;2022-09-03T06:01:37;13.00;99.90
32215;DHT22;18708;53.124;23.190;2022-09-03T06:04:08;13.20;99.90
32215;DHT22;18708;53.124;23.190;2022-09-03T06:06:36;13.20;99.90
32215;DHT22;18708;53.124;23.190;2022-09-03T06:09:14;13.00;99.90
32215;DHT22;18708;53.124;23.190;2022-09-03T06:11:41;12.90;99.90
32215;DHT22;18708;53.124;23.190;2022-09-03T06:14:09;13.10;99.90
32215;DHT22;18708;53.124;23.190;2022-09-03T06:16:37;13.80;99.90
32215;DHT22;18708;53.124;23.190;2022-09-03T06:19:04;14.40;99.90
32215;DHT22;18708;53.124;23.190;2022-09-03T06:21:35;15.00;99.90
32215;DHT22;18708;53.124;23.190;2022-09-03T06:24:02;15.10;99.90
32215;DHT22;18708;53.124;23.190;2022-09-03T06:26:28;15.60;99.90
32215;DHT22;18708;53.124;23.190;2022-09-03T06:28:54;16.00;99.90
32215;DHT22;18708;53.124;23.190;2022-09-03T06:31:21;16.00;99.90
32215;DHT22;18708;53.124;23.190;2022-09-03T06:33:47;16.50;99.90
32215;DHT22;18708;53.124;23.190;2022-09-03T06:36:15;17.10;99.90
32215;DHT22;18708;53.124;23.190;2022-09-03T06:38:42;17.40;99.90
32215;DHT22;18708;53.124;23.190;2022-09-03T06:41:10;17.50;99.90
32215;DHT22;18708;53.124;23.190;2022-09-03T06:43:41;17.50;99.90
32215;DHT22;18708;53.124;23.190;2022-09-03T06:46:12;17.30;96.10
32215;DHT22;18708;53.124;23.190;2022-09-03T06:48:39;18.30;99.90
32215;DHT22;18708;53.124;23.190;2022-09-03T06:51:08;18.90;97.90
32215;DHT22;18708;53.124;23.190;2022-09-03T06:53:36;19.10;94.50
32215;DHT22;18708;53.124;23.190;2022-09-03T06:56:09;19.50;93.00
32215;DHT22;18708;53.124;23.190;2022-09-03T06:58:37;19.90;94.80
32215;DHT22;18708;53.124;23.190;2022-09-03T07:01:10;19.90;92.80
32215;DHT22;18708;53.124;23.190;2022-09-03T07:03:36;20.30;94.20
32215;DHT22;18708;53.124;23.190;2022-09-03T07:06:04;20.60;87.60
32215;DHT22;18708;53.124;23.190;2022-09-03T07:08:32;20.80;90.10
32215;DHT22;18708;53.124;23.190;2022-09-03T07:11:02;21.40;89.00
32215;DHT22;18708;53.124;23.190;2022-09-03T07:13:30;21.60;85.50
32215;DHT22;18708;53.124;23.190;2022-09-03T07:16:04;21.70;83.30
32215;DHT22;18708;53.124;23.190;2022-09-03T07:18:30;22.40;82.70
32215;DHT22;18708;53.124;23.190;2022-09-03T07:21:17;22.80;73.90
32215;DHT22;18708;53.124;23.190;2022-09-03T07:23:43;22.40;74.40
32215;DHT22;18708;53.124;23.190;2022-09-03T07:26:15;22.80;78.00
32215;DHT22;18708;53.124;23.190;2022-09-03T07:28:42;23.30;70.50
32215;DHT22;18708;53.124;23.190;2022-09-03T07:31:12;23.30;65.00
32215;DHT22;18708;53.124;23.190;2022-09-03T07:33:38;22.50;66.20
32215;DHT22;18708;53.124;23.190;2022-09-03T07:36:05;22.00;68.60
32215;DHT22;18708;53.124;23.190;2022-09-03T07:38:32;21.80;67.50
32215;DHT22;18708;53.124;23.190;2022-09-03T07:40:59;21.40;71.90
32215;DHT22;18708;53.124;23.190;2022-09-03T07:43:26;21.20;67.60
32215;DHT22;18708;53.124;23.190;2022-09-03T07:45:53;21.00;75.00
32215;DHT22;18708;53.124;23.190;2022-09-03T07:48:21;20.80;70.70
32215;DHT22;18708;53.124;23.190;2022-09-03T07:50:47;20.60;73.90
32215;DHT22;18708;53.124;23.190;2022-09-03T07:53:15;20.50;77.70
32215;DHT22;18708;53.124;23.190;2022-09-03T07:55:42;20.70;79.60
32215;DHT22;18708;53.124;23.190;2022-09-03T07:58:08;20.70;74.50
32215;DHT22;18708;53.124;23.190;2022-09-03T08:00:37;20.90;79.60
32215;DHT22;18708;53.124;23.190;2022-09-03T08:03:03;21.10;75.00
32215;DHT22;18708;53.124;23.190;2022-09-03T08:05:33;21.00;78.70
32215;DHT22;18708;53.124;23.190;2022-09-03T08:08:04;21.10;76.40
32215;DHT22;18708;53.124;23.190;2022-09-03T08:10:33;21.10;78.60
32215;DHT22;18708;53.124;23.190;2022-09-03T08:13:00;21.20;74.30
32215;DHT22;18708;53.124;23.190;2022-09-03T08:15:26;21.10;78.40
32215;DHT22;18708;53.124;23.190;2022-09-03T08:17:52;21.10;80.20
32215;DHT22;18708;53.124;23.190;2022-09-03T08:20:18;21.20;75.60
32215;DHT22;18708;53.124;23.190;2022-09-03T08:22:45;21.50;72.80
32215;DHT22;18708;53.124;23.190;2022-09-03T08:25:10;21.10;74.30
32215;DHT22;18708;53.124;23.190;2022-09-03T08:27:36;21.40;72.20
32215;DHT22;18708;53.124;23.190;2022-09-03T08:30:02;21.80;70.60
32215;DHT22;18708;53.124;23.190;2022-09-03T08:32:28;21.40;70.00
32215;DHT22;18708;53.124;23.190;2022-09-03T08:34:54;21.10;72.70
32215;DHT22;18708;53.124;23.190;2022-09-03T08:37:20;20.90;71.10
32215;DHT22;18708;53.124;23.190;2022-09-03T08:39:47;21.20;66.70
32215;DHT22;18708;53.124;23.190;2022-09-03T08:44:59;21.10;64.40
32215;DHT22;18708;53.124;23.190;2022-09-03T08:47:36;20.80;63.00
32215;DHT22;18708;53.124;23.190;2022-09-03T08:58:17;21.30;61.70
32215;DHT22;18708;53.124;23.190;2022-09-03T09:06:52;21.50;63.30
32215;DHT22;18708;53.124;23.190;2022-09-03T09:12:18;21.30;67.90
32215;DHT22;18708;53.124;23.190;2022-09-03T09:15:10;21.80;68.70
32215;DHT22;18708;53.124;23.190;2022-09-03T09:25:50;22.20;60.90
32215;DHT22;18708;53.124;23.190;2022-09-03T09:28:24;22.80;66.40
32215;DHT22;18708;53.124;23.190;2022-09-03T09:30:53;22.80;58.00
32215;DHT22;18708;53.124;23.190;2022-09-03T09:33:21;24.10;62.90
32215;DHT22;18708;53.124;23.190;2022-09-03T09:35:48;24.60;59.80
32215;DHT22;18708;53.124;23.190;2022-09-03T09:38:14;24.40;56.10
32215;DHT22;18708;53.124;23.190;2022-09-03T09:40:51;24.30;59.00
32215;DHT22;18708;53.124;23.190;2022-09-03T09:43:18;24.40;57.20
32215;DHT22;18708;53.124;23.190;2022-09-03T09:45:48;24.70;55.10
32215;DHT22;18708;53.124;23.190;2022-09-03T09:50:48;25.20;60.20
32215;DHT22;18708;53.124;23.190;2022-09-03T09:53:16;24.20;56.50
32215;DHT22;18708;53.124;23.190;2022-09-03T09:55:51;23.80;56.40
32215;DHT22;18708;53.124;23.190;2022-09-03T09:58:22;24.00;58.40
32215;DHT22;18708;53.124;23.190;2022-09-03T10:01:00;24.30;58.80
32215;DHT22;18708;53.124;23.190;2022-09-03T10:03:32;24.40;56.40
32215;DHT22;18708;53.124;23.190;2022-09-03T10:06:03;24.50;59.90
32215;DHT22;18708;53.124;23.190;2022-09-03T10:08:49;25.20;59.10
32215;DHT22;18708;53.124;23.190;2022-09-03T10:11:17;25.40;55.90
32215;DHT22;18708;53.124;23.190;2022-09-03T10:13:46;25.30;54.70
32215;DHT22;18708;53.124;23.190;2022-09-03T10:16:22;25.10;55.40
32215;DHT22;18708;53.124;23.190;2022-09-03T10:21:19;26.30;56.50
32215;DHT22;18708;53.124;23.190;2022-09-03T10:26:40;25.90;56.80
32215;DHT22;18708;53.124;23.190;2022-09-03T10:29:09;26.00;56.10
32215;DHT22;18708;53.124;23.190;2022-09-03T10:50:20;25.50;54.10
32215;DHT22;18708;53.124;23.190;2022-09-03T10:53:00;25.10;54.10
32215;DHT22;18708;53.124;23.190;2022-09-03T10:55:40;25.20;53.30
32215;DHT22;18708;53.124;23.190;2022-09-03T10:58:44;23.80;52.90
32215;DHT22;18708;53.124;23.190;2022-09-03T11:01:19;23.90;53.50
32215;DHT22;18708;53.124;23.190;2022-09-03T11:06:23;23.30;57.90
32215;DHT22;18708;53.124;23.190;2022-09-03T11:08:59;23.90;58.80
32215;DHT22;18708;53.124;23.190;2022-09-03T11:11:35;24.10;55.60
32215;DHT22;18708;53.124;23.190;2022-09-03T11:14:11;24.10;53.40
32215;DHT22;18708;53.124;23.190;2022-09-03T11:16:52;24.40;53.50
32215;DHT22;18708;53.124;23.190;2022-09-03T11:19:24;24.60;54.60
32215;DHT22;18708;53.124;23.190;2022-09-03T11:21:52;24.00;54.30
32215;DHT22;18708;53.124;23.190;2022-09-03T11:24:21;24.30;58.70
32215;DHT22;18708;53.124;23.190;2022-09-03T11:30:24;25.50;56.80
32215;DHT22;18708;53.124;23.190;2022-09-03T11:33:04;23.70;52.50
32215;DHT22;18708;53.124;23.190;2022-09-03T11:37:59;23.90;55.40
32215;DHT22;18708;53.124;23.190;2022-09-03T11:40:35;23.90;56.10
32215;DHT22;18708;53.124;23.190;2022-09-03T11:43:26;23.70;55.80
32215;DHT22;18708;53.124;23.190;2022-09-03T11:46:03;23.50;58.50
32215;DHT22;18708;53.124;23.190;2022-09-03T11:48:49;23.10;57.80
32215;DHT22;18708;53.124;23.190;2022-09-03T11:56:39;22.40;56.90
32215;DHT22;18708;53.124;23.190;2022-09-03T12:01:51;22.20;59.80
32215;DHT22;18708;53.124;23.190;2022-09-03T12:04:21;21.90;58.50
32215;DHT22;18708;53.124;23.190;2022-09-03T12:09:36;21.40;58.10
32215;DHT22;18708;53.124;23.190;2022-09-03T12:12:39;22.10;56.10
32215;DHT22;18708;53.124;23.190;2022-09-03T12:18:10;22.90;53.90
32215;DHT22;18708;53.124;23.190;2022-09-03T12:20:46;23.80;53.70
32215;DHT22;18708;53.124;23.190;2022-09-03T12:23:24;24.80;54.80
32215;DHT22;18708;53.124;23.190;2022-09-03T12:25:51;25.40;50.20
32215;DHT22;18708;53.124;23.190;2022-09-03T12:28:20;26.50;53.10
32215;DHT22;18708;53.124;23.190;2022-09-03T12:30:48;26.90;46.40
32215;DHT22;18708;53.124;23.190;2022-09-03T12:33:19;26.70;49.00
32215;DHT22;18708;53.124;23.190;2022-09-03T12:35:59;27.60;46.90
32215;DHT22;18708;53.124;23.190;2022-09-03T12:38:26;26.60;48.80
32215;DHT22;18708;53.124;23.190;2022-09-03T12:40:54;25.70;49.00
32215;DHT22;18708;53.124;23.190;2022-09-03T12:43:27;25.80;48.80
32215;DHT22;18708;53.124;23.190;2022-09-03T12:45:52;25.70;47.20
32215;DHT22;18708;53.124;23.190;2022-09-03T12:48:19;26.10;51.40
32215;DHT22;18708;53.124;23.190;2022-09-03T12:50:47;26.80;47.90
32215;DHT22;18708;53.124;23.190;2022-09-03T12:53:24;26.70;49.20
32215;DHT22;18708;53.124;23.190;2022-09-03T12:55:53;26.10;50.90
32215;DHT22;18708;53.124;23.190;2022-09-03T12:58:22;25.70;48.80
32215;DHT22;18708;53.124;23.190;2022-09-03T13:03:33;25.20;53.70
32215;DHT22;18708;53.124;23.190;2022-09-03T13:06:11;25.30;52.00
32215;DHT22;18708;53.124;23.190;2022-09-03T13:08:54;23.90;51.60
32215;DHT22;18708;53.124;23.190;2022-09-03T13:11:22;23.70;53.10
32215;DHT22;18708;53.124;23.190;2022-09-03T13:14:10;22.80;53.40
32215;DHT22;18708;53.124;23.190;2022-09-03T13:19:08;22.10;52.70
32215;DHT22;18708;53.124;23.190;2022-09-03T13:34:59;21.40;55.60
32215;DHT22;18708;53.124;23.190;2022-09-03T13:37:34;21.10;57.20
32215;DHT22;18708;53.124;23.190;2022-09-03T13:42:53;20.80;59.10
32215;DHT22;18708;53.124;23.190;2022-09-03T13:48:14;20.80;59.10
32215;DHT22;18708;53.124;23.190;2022-09-03T13:51:24;20.70;59.30
32215;DHT22;18708;53.124;23.190;2022-09-03T13:56:48;20.20;61.60
32215;DHT22;18708;53.124;23.190;2022-09-03T14:02:51;20.00;62.50
32215;DHT22;18708;53.124;23.190;2022-09-03T14:13:43;20.00;63.40
32215;DHT22;18708;53.124;23.190;2022-09-03T14:21:20;19.90;62.20
32215;DHT22;18708;53.124;23.190;2022-09-03T14:26:32;19.40;64.40
32215;DHT22;18708;53.124;23.190;2022-09-03T14:51:49;19.60;64.50
32215;DHT22;18708;53.124;23.190;2022-09-03T15:04:58;19.60;63.00
32215;DHT22;18708;53.124;23.190;2022-09-03T15:07:33;19.70;62.80
32215;DHT22;18708;53.124;23.190;2022-09-03T15:12:42;19.60;62.80
32215;DHT22;18708;53.124;23.190;2022-09-03T15:15:15;19.50;62.20
32215;DHT22;18708;53.124;23.190;2022-09-03T15:17:59;19.60;62.60
32215;DHT22;18708;53.124;23.190;2022-09-03T15:20:42;19.40;63.80
32215;DHT22;18708;53.124;23.190;2022-09-03T15:26:19;19.30;66.20
32215;DHT22;18708;53.124;23.190;2022-09-03T15:34:58;19.20;65.60
32215;DHT22;18708;53.124;23.190;2022-09-03T15:37:51;19.30;65.70
32215;DHT22;18708;53.124;23.190;2022-09-03T15:43:29;19.10;66.20
32215;DHT22;18708;53.124;23.190;2022-09-03T15:46:11;18.90;65.60
32215;DHT22;18708;53.124;23.190;2022-09-03T15:48:58;18.70;65.40
32215;DHT22;18708;53.124;23.190;2022-09-03T15:51:28;18.70;67.10
32215;DHT22;18708;53.124;23.190;2022-09-03T15:54:09;18.70;67.60
32215;DHT22;18708;53.124;23.190;2022-09-03T15:56:42;18.60;66.60
32215;DHT22;18708;53.124;23.190;2022-09-03T16:01:57;18.60;68.50
32215;DHT22;18708;53.124;23.190;2022-09-03T16:08:07;18.50;68.40
32215;DHT22;18708;53.124;23.190;2022-09-03T16:16:03;18.30;69.60
32215;DHT22;18708;53.124;23.190;2022-09-03T16:18:42;18.20;70.20
32215;DHT22;18708;53.124;23.190;2022-09-03T16:21:37;18.20;73.10
32215;DHT22;18708;53.124;23.190;2022-09-03T16:27:24;18.10;72.00
32215;DHT22;18708;53.124;23.190;2022-09-03T16:30:01;18.10;73.60
32215;DHT22;18708;53.124;23.190;2022-09-03T16:33:03;18.00;74.10
32215;DHT22;18708;53.124;23.190;2022-09-03T16:58:13;17.70;76.70
32215;DHT22;18708;53.124;23.190;2022-09-03T17:03:53;17.50;79.90
32215;DHT22;18708;53.124;23.190;2022-09-03T17:36:25;16.60;91.20
32215;DHT22;18708;53.124;23.190;2022-09-03T17:41:51;16.40;93.70
32215;DHT22;18708;53.124;23.190;2022-09-03T17:47:22;16.10;96.00
32215;DHT22;18708;53.124;23.190;2022-09-03T17:49:56;15.90;95.10
32215;DHT22;18708;53.124;23.190;2022-09-03T17:52:38;15.70;95.30
32215;DHT22;18708;53.124;23.190;2022-09-03T17:57:47;15.50;97.40
32215;DHT22;18708;53.124;23.190;2022-09-03T18:05:56;15.20;99.90
32215;DHT22;18708;53.124;23.190;2022-09-03T18:08:54;15.10;99.90
32215;DHT22;18708;53.124;23.190;2022-09-03T18:14:27;14.90;99.90
32215;DHT22;18708;53.124;23.190;2022-09-03T18:20:06;14.70;99.90
32215;DHT22;18708;53.124;23.190;2022-09-03T18:23:33;14.40;99.90
32215;DHT22;18708;53.124;23.190;2022-09-03T18:26:36;14.20;99.90
32215;DHT22;18708;53.124;23.190;2022-09-03T18:29:54;14.10;99.90
32215;DHT22;18708;53.124;23.190;2022-09-03T18:32:42;14.10;99.90
32215;DHT22;18708;53.124;23.190;2022-09-03T18:35:30;14.00;99.90
32215;DHT22;18708;53.124;23.190;2022-09-03T18:38:22;14.00;99.90
32215;DHT22;18708;53.124;23.190;2022-09-03T18:41:30;14.10;99.90
32215;DHT22;18708;53.124;23.190;2022-09-03T18:50:34;13.90;99.90
32215;DHT22;18708;53.124;23.190;2022-09-03T18:54:24;13.90;99.90
32215;DHT22;18708;53.124;23.190;2022-09-03T18:56:51;13.80;99.90
32215;DHT22;18708;53.124;23.190;2022-09-03T19:09:26;13.80;99.90
32215;DHT22;18708;53.124;23.190;2022-09-03T19:12:26;13.80;99.90
32215;DHT22;18708;53.124;23.190;2022-09-03T19:15:13;13.80;99.90
32215;DHT22;18708;53.124;23.190;2022-09-03T19:20:50;13.80;99.90
32215;DHT22;18708;53.124;23.190;2022-09-03T19:23:36;13.80;99.90
32215;DHT22;18708;53.124;23.190;2022-09-03T19:29:50;14.00;99.90
32215;DHT22;18708;53.124;23.190;2022-09-03T19:35:47;14.20;99.90
32215;DHT22;18708;53.124;23.190;2022-09-03T19:51:33;14.10;99.90
32215;DHT22;18708;53.124;23.190;2022-09-03T19:54:22;14.00;99.90
32215;DHT22;18708;53.124;23.190;2022-09-03T19:57:10;13.80;99.90
32215;DHT22;18708;53.124;23.190;2022-09-03T19:59:56;13.70;99.90
32215;DHT22;18708;53.124;23.190;2022-09-03T20:02:41;13.60;99.90
32215;DHT22;18708;53.124;23.190;2022-09-03T20:05:28;13.60;99.90
32215;DHT22;18708;53.124;23.190;2022-09-03T20:08:15;13.50;99.90
32215;DHT22;18708;53.124;23.190;2022-09-03T20:11:01;13.50;99.90
32215;DHT22;18708;53.124;23.190;2022-09-03T20:13:27;13.50;99.90
32215;DHT22;18708;53.124;23.190;2022-09-03T20:21:39;13.30;99.90
32215;DHT22;18708;53.124;23.190;2022-09-03T20:26:50;13.10;99.90
32215;DHT22;18708;53.124;23.190;2022-09-03T20:31:57;13.00;99.90
32215;DHT22;18708;53.124;23.190;2022-09-03T20:34:30;12.90;99.90
32215;DHT22;18708;53.124;23.190;2022-09-03T20:37:17;12.90;99.90
32215;DHT22;18708;53.124;23.190;2022-09-03T20:43:10;12.80;99.90
32215;DHT22;18708;53.124;23.190;2022-09-03T20:51:16;12.60;99.90
32215;DHT22;18708;53.124;23.190;2022-09-03T20:54:03;12.60;99.90
32215;DHT22;18708;53.124;23.190;2022-09-03T20:59:49;12.50;99.90
32215;DHT22;18708;53.124;23.190;2022-09-03T21:05:26;12.30;99.90
32215;DHT22;18708;53.124;23.190;2022-09-03T21:10:57;12.30;99.90
32215;DHT22;18708;53.124;23.190;2022-09-03T21:19:42;12.20;99.90
32215;DHT22;18708;53.124;23.190;2022-09-03T21:25:06;12.20;99.90
32215;DHT22;18708;53.124;23.190;2022-09-03T21:27:43;12.20;99.90
32215;DHT22;18708;53.124;23.190;2022-09-03T21:30:16;12.20;99.90
32215;DHT22;18708;53.124;23.190;2022-09-03T21:32:57;12.30;99.90
32215;DHT22;18708;53.124;23.190;2022-09-03T21:35:29;12.30;99.90
32215;DHT22;18708;53.124;23.190;2022-09-03T21:40:29;12.30;99.90
32215;DHT22;18708;53.124;23.190;2022-09-03T21:43:08;12.30;99.90
32215;DHT22;18708;53.124;23.190;2022-09-03T21:45:42;12.30;99.90
32215;DHT22;18708;53.124;23.190;2022-09-03T21:48:13;12.30;99.90
32215;DHT22;18708;53.124;23.190;2022-09-03T21:50:54;12.30;99.90
32215;DHT22;18708;53.124;23.190;2022-09-03T22:01:13;12.40;99.90
32215;DHT22;18708;53.124;23.190;2022-09-03T22:03:41;12.30;99.90
32215;DHT22;18708;53.124;23.190;2022-09-03T22:06:21;12.30;99.90
32215;DHT22;18708;53.124;23.190;2022-09-03T22:09:03;12.40;99.90
32215;DHT22;18708;53.124;23.190;2022-09-03T22:14:20;12.40;99.90
32215;DHT22;18708;53.124;23.190;2022-09-03T22:17:10;12.50;99.90
32215;DHT22;18708;53.124;23.190;2022-09-03T22:19:39;12.50;99.90
32215;DHT22;18708;53.124;23.190;2022-09-03T22:22:14;12.50;99.90
32215;DHT22;18708;53.124;23.190;2022-09-03T22:25:12;12.50;99.90
32215;DHT22;18708;53.124;23.190;2022-09-03T22:27:45;12.50;99.90
32215;DHT22;18708;53.124;23.190;2022-09-03T22:30:18;12.60;99.90
32215;DHT22;18708;53.124;23.190;2022-09-03T22:47:26;12.60;99.90
32215;DHT22;18708;53.124;23.190;2022-09-03T22:55:59;12.70;99.90
32215;DHT22;18708;53.124;23.190;2022-09-03T22:58:32;12.70;99.90
32215;DHT22;18708;53.124;23.190;2022-09-03T23:01:24;12.70;99.90
32215;DHT22;18708;53.124;23.190;2022-09-03T23:09:54;12.60;99.90
32215;DHT22;18708;53.124;23.190;2022-09-03T23:12:49;12.60;99.90
32215;DHT22;18708;53.124;23.190;2022-09-03T23:15:21;12.60;99.90
32215;DHT22;18708;53.124;23.190;2022-09-03T23:18:03;12.60;99.90
32215;DHT22;18708;53.124;23.190;2022-09-03T23:20:32;12.60;99.90
32215;DHT22;18708;53.124;23.190;2022-09-03T23:23:20;12.60;99.90
32215;DHT22;18708;53.124;23.190;2022-09-03T23:26:00;12.60;99.90
32215;DHT22;18708;53.124;23.190;2022-09-03T23:28:37;12.70;99.90